SBPA/POA METAR and TAF weather

Enter ICAO airport designator
Station Type Date Time Source
SBPA METAR 2021/03/02 14:00 UTC NOAA

SBPA 021400Z 33005KT 250V010 9999 FEW025 SCT100 30/19 Q1012


Station Type Date Time Source
SBPA Decoded METAR 2021/03/02 14:00 UTC NOAA

Porto Alegre Aero-Porto , Brazil (SBPA) 30-00S 051-11W 3M
Mar 02, 2021 - 09:00 AM EST / 2021.03.02 1400 UTC
Wind: from the NNW (330 degrees) at 6 MPH (5 KT) (direction variable):0
Visibility: greater than 7 mile(s):0
Sky conditions: partly cloudy
Temperature: 86 F (30 C)
Dew Point: 66 F (19 C)
Relative Humidity: 51%
Pressure (altimeter): 29.88 in. Hg (1012 hPa)
ob: SBPA 021400Z 33005KT 250V010 9999 FEW025 SCT100 30/19 Q1012
cycle: 14

Station Type Date Time Source
SBPA TAF 2021/03/02 12:24 UTC NOAA

TAF SBPA 020900Z 0212/0312 11008KT CAVOK TX32/0217Z TN22/0306Z
BECMG 0214/0216 09013KT SCT035 FEW040TCU PROB40 0217/0219 4500 TSRA BKN035 FEW040CB
BECMG 0221/0222 SCT023
BECMG 0301/0303 10008KT SCT014
RMK PFM

Example: see airport list